^^
Datos históricos de la estación: Murcia-Puente Tocinos
Diario Informe para Octubre 26, 2021 Unidades:  Ambas    Ingés   Métrico
Diario Semanal Mensual Anual
  Máxima: Mínima: Promedio:
Temperatura: 69.1 °F /  20.6 °C 57.7 °F /  14.3 °C 62.8 °F /  17.1 °C
Punto de rocio: 60.8 °F /  16 °C 52.9 °F /  11.6 °C 56.1 °F /  13.4 °C
Humedad: 92% 64% 79%
Velocidad viento: 7.6mph /  12.2km/h - 3.5mph /  5.6km/h
Racha viento: 12.7mph /  20.4km/h - -
Viento- - SE
Presión: 30.2 in /  1022.3 hPa 30.1 in /  1019.7 hPa -
Precipitación: 0.25 in /  6.4 mm    
 
 
Tabla de datos para Octubre 26, 2021
Hora Temperatura Punto de rocio Presión Viento Velocidad viento Racha viento Humedad Intensidad lluvia(por hora) Nubes
00:04 61 °F /  16.1 °C 55.9 °F /  13.3 °C 30.1in /  1020.2hPa ENE 2mph /  3.2km/h 2.9mph /  4.7km/h 83.5% 0in /  0.0mm
00:09 61 °F /  16.1 °C 55.9 °F /  13.3 °C 30.1in /  1020.3hPa ENE 1.8mph /  2.9km/h   84% 0in /  0.0mm
00:14 60.8 °F /  16 °C 55.9 °F /  13.3 °C 30.1in /  1020.3hPa ENE 1.4mph /  2.3km/h 2.9mph /  4.7km/h 84% 0in /  0.0mm
00:19 60.6 °F /  15.9 °C 55.8 °F /  13.2 °C 30.1in /  1020.3hPa ENE 0.9mph /  1.5km/h 1.2mph /  1.9km/h 84% 0in /  0.0mm
00:24 60.6 °F /  15.9 °C 55.8 °F /  13.2 °C 30.1in /  1020.3hPa Calm     84.1% 0in /  0.0mm
00:29 60.6 °F /  15.9 °C 56.1 °F /  13.4 °C 30.1in /  1020.2hPa Calm   1.4mph /  2.3km/h 85% 0in /  0.0mm
00:34 60.6 °F /  15.9 °C 56.1 °F /  13.4 °C 30.1in /  1020.2hPa Calm     85% 0in /  0.0mm
00:39 60.6 °F /  15.9 °C 56.1 °F /  13.4 °C 30.1in /  1020.3hPa Calm     85% 0in /  0.0mm
00:44 60.6 °F /  15.9 °C 56.1 °F /  13.4 °C 30.1in /  1020.3hPa Calm   2.4mph /  3.9km/h 85% 0in /  0.0mm
00:49 60.6 °F /  15.9 °C 56.1 °F /  13.4 °C 30.1in /  1020.3hPa ENE 0.6mph /  0.9km/h 2.4mph /  3.9km/h 85% 0in /  0.0mm
00:54 60.6 °F /  15.9 °C 56.1 °F /  13.4 °C 30.1in /  1020.3hPa ENE 1.4mph /  2.3km/h 2.3mph /  3.7km/h 85% 0in /  0.0mm
00:59 60.6 °F /  15.9 °C 56.1 °F /  13.4 °C 30.1in /  1020.2hPa ENE 0.8mph /  1.3km/h 2.4mph /  3.9km/h 85% 0in /  0.0mm
01:04 60.6 °F /  15.9 °C 56.1 °F /  13.4 °C 30.1in /  1020.2hPa Calm   3.5mph /  5.6km/h 85% 0in /  0.0mm
01:09 60.6 °F /  15.9 °C 56.1 °F /  13.4 °C 30.1in /  1020.3hPa ENE 0.7mph /  1.1km/h 2.4mph /  3.9km/h 85.1% 0in /  0.0mm
01:14 60.6 °F /  15.9 °C 56.3 °F /  13.5 °C 30.1in /  1020.3hPa ENE 1.8mph /  2.9km/h 3.6mph /  5.8km/h 85.7% 0in /  0.0mm
01:19 60.6 °F /  15.9 °C 56.1 °F /  13.4 °C 30.1in /  1020.3hPa ENE 1.9mph /  3km/h 3.6mph /  5.8km/h 85% 0in /  0.0mm
01:24 60.4 °F /  15.8 °C 55.9 °F /  13.3 °C 30.1in /  1020.4hPa ENE 2mph /  3.2km/h 4.6mph /  7.4km/h 85% 0in /  0.0mm
01:29 60.4 °F /  15.8 °C 55.9 °F /  13.3 °C 30.1in /  1020.4hPa ENE 2.2mph /  3.5km/h 4.6mph /  7.4km/h 85% 0in /  0.0mm
01:34 60.4 °F /  15.8 °C 55.9 °F /  13.3 °C 30.1in /  1020.4hPa ENE 2.4mph /  3.9km/h 3.5mph /  5.6km/h 85% 0in /  0.0mm
01:39 60.4 °F /  15.8 °C 55.9 °F /  13.3 °C 30.1in /  1020.4hPa ENE 2.2mph /  3.6km/h 2.9mph /  4.7km/h 85% 0in /  0.0mm
01:44 60.4 °F /  15.8 °C 55.9 °F /  13.3 °C 30.1in /  1020.4hPa ENE 2mph /  3.2km/h 1.2mph /  1.9km/h 85% 0in /  0.0mm
01:49 60.3 °F /  15.7 °C 55.8 °F /  13.2 °C 30.1in /  1020.4hPa ENE 1.2mph /  2km/h   85% 0in /  0.0mm
01:54 60.3 °F /  15.7 °C 55.8 °F /  13.2 °C 30.1in /  1020.4hPa Calm   2.4mph /  3.9km/h 85% 0in /  0.0mm
01:59 60.3 °F /  15.7 °C 55.8 °F /  13.2 °C 30.1in /  1020.4hPa Calm     85.1% 0in /  0.0mm
02:04 60.3 °F /  15.7 °C 55.8 °F /  13.2 °C 30.1in /  1020.4hPa Calm   3.6mph /  5.8km/h 85.1% 0in /  0.0mm
02:09 60.1 °F /  15.6 °C 55.8 °F /  13.2 °C 30.1in /  1020.4hPa ENE 0.6mph /  1km/h 3.5mph /  5.6km/h 85.4% 0in /  0.0mm
02:14 60.1 °F /  15.6 °C 55.9 °F /  13.3 °C 30.1in /  1020.3hPa ENE 1.8mph /  2.9km/h 3.5mph /  5.6km/h 86% 0in /  0.0mm
02:19 59.9 °F /  15.5 °C 55.4 °F /  13 °C 30.1in /  1020.3hPa ENE 1.8mph /  2.9km/h 3.6mph /  5.8km/h 85.3% 0in /  0.0mm
02:24 59.5 °F /  15.3 °C 55 °F /  12.8 °C 30.1in /  1020.3hPa ENE 1.8mph /  2.9km/h 3.5mph /  5.6km/h 85% 0in /  0.0mm
02:29 59.4 °F /  15.2 °C 54.9 °F /  12.7 °C 30.1in /  1020.2hPa Este 2.1mph /  3.3km/h 4.6mph /  7.4km/h 85% 0in /  0.0mm
02:34 59.2 °F /  15.1 °C 54.9 °F /  12.7 °C 30.1in /  1020.2hPa SE 2.4mph /  3.9km/h 5.9mph /  9.5km/h 85.4% 0in /  0.0mm
02:39 58.8 °F /  14.9 °C 54.7 °F /  12.6 °C 30.1in /  1020.3hPa SSE 3mph /  4.8km/h 6.2mph /  10km/h 86% 0in /  0.0mm
02:44 58.6 °F /  14.8 °C 54.5 °F /  12.5 °C 30.1in /  1020.3hPa Sur 4mph /  6.4km/h 6.2mph /  10km/h 86% 0in /  0.0mm
02:49 58.6 °F /  14.8 °C 54.7 °F /  12.6 °C 30.1in /  1020.3hPa Sur 4mph /  6.4km/h 5.8mph /  9.3km/h 86.6% 0in /  0.0mm
02:54 58.6 °F /  14.8 °C 54.9 °F /  12.7 °C 30.1in /  1020.3hPa Sur 4mph /  6.4km/h 4.7mph /  7.6km/h 87% 0in /  0.0mm
02:59 58.6 °F /  14.8 °C 54.9 °F /  12.7 °C 30.1in /  1020.3hPa Sur 3.7mph /  5.9km/h 4.6mph /  7.4km/h 87% 0in /  0.0mm
03:04 58.8 °F /  14.9 °C 55 °F /  12.8 °C 30.1in /  1020.3hPa SSO 3.1mph /  5km/h 3.6mph /  5.8km/h 87% 0in /  0.0mm
03:09 58.8 °F /  14.9 °C 54.9 °F /  12.7 °C 30.1in /  1020.3hPa SO 2.9mph /  4.6km/h 4.6mph /  7.4km/h 86.4% 0in /  0.0mm
03:14 58.8 °F /  14.9 °C 54.7 °F /  12.6 °C 30.1in /  1020.3hPa SSO 2.4mph /  3.9km/h 4.6mph /  7.4km/h 86% 0in /  0.0mm
03:19 59 °F /  15 °C 54.7 °F /  12.6 °C 30.1in /  1020.3hPa Sur 2.6mph /  4.2km/h 4.7mph /  7.6km/h 86% 0in /  0.0mm
03:24 59 °F /  15 °C 54.9 °F /  12.7 °C 30.1in /  1020.3hPa SO 2.9mph /  4.7km/h 4.6mph /  7.4km/h 86% 0in /  0.0mm
03:29 59.2 °F /  15.1 °C 55 °F /  12.8 °C 30.1in /  1020.3hPa OSO 2.9mph /  4.7km/h 4.6mph /  7.4km/h 86% 0in /  0.0mm
03:34 59.2 °F /  15.1 °C 55 °F /  12.8 °C 30.1in /  1020.3hPa OSO 2.9mph /  4.7km/h 4.6mph /  7.4km/h 86% 0in /  0.0mm
03:39 59 °F /  15 °C 54.9 °F /  12.7 °C 30.1in /  1020.3hPa Oeste 2.9mph /  4.7km/h 4.6mph /  7.4km/h 86% 0in /  0.0mm
03:44 58.8 °F /  14.9 °C 54.7 °F /  12.6 °C 30.1in /  1020.2hPa OSO 2.9mph /  4.7km/h 4.6mph /  7.4km/h 86% 0in /  0.0mm
03:49 58.6 °F /  14.8 °C 54.5 °F /  12.5 °C 30.1in /  1020.2hPa OSO 2.9mph /  4.7km/h 4.6mph /  7.4km/h 86% 0in /  0.0mm
03:54 58.6 °F /  14.8 °C 54.5 °F /  12.5 °C 30.1in /  1020.3hPa SSO 2.9mph /  4.7km/h 4.7mph /  7.6km/h 86% 0in /  0.0mm
03:59 58.6 °F /  14.8 °C 54.5 °F /  12.5 °C 30.1in /  1020.3hPa SSO 3mph /  4.8km/h 5.8mph /  9.3km/h 86% 0in /  0.0mm
04:04 58.6 °F /  14.8 °C 54.5 °F /  12.5 °C 30.1in /  1020.3hPa SO 3.1mph /  5km/h 5.2mph /  8.4km/h 86% 0in /  0.0mm
04:09 58.8 °F /  14.9 °C 54.7 °F /  12.6 °C 30.1in /  1020.3hPa SO 3.1mph /  5km/h 4.7mph /  7.6km/h 86% 0in /  0.0mm
04:14 58.8 °F /  14.9 °C 54.7 °F /  12.6 °C 30.1in /  1020.1hPa SO 3.1mph /  5km/h 4.6mph /  7.4km/h 86% 0in /  0.0mm
04:19 58.8 °F /  14.9 °C 54.7 °F /  12.6 °C 30.1in /  1020.1hPa Sur 2.9mph /  4.6km/h 4.7mph /  7.6km/h 86% 0in /  0.0mm
04:24 58.8 °F /  14.9 °C 54.7 °F /  12.6 °C 30.1in /  1020.2hPa SE 2.4mph /  3.9km/h 4.7mph /  7.6km/h 86% 0in /  0.0mm
04:29 58.6 °F /  14.8 °C 54.5 °F /  12.5 °C 30.1in /  1020.2hPa SSE 2.7mph /  4.3km/h 6.2mph /  10km/h 86% 0in /  0.0mm
04:34 58.6 °F /  14.8 °C 54.5 °F /  12.5 °C 30.1in /  1020.2hPa Sur 3.1mph /  5km/h 5.8mph /  9.3km/h 86% 0in /  0.0mm
04:39 58.5 °F /  14.7 °C 54.3 °F /  12.4 °C 30.1in /  1020.2hPa Sur 3.5mph /  5.6km/h 7.4mph /  11.9km/h 86% 0in /  0.0mm
04:44 58.5 °F /  14.7 °C 54.3 °F /  12.4 °C 30.1in /  1020.2hPa SSO 4mph /  6.4km/h 6.9mph /  11.1km/h 86.5% 0in /  0.0mm
04:49 58.3 °F /  14.6 °C 54.3 °F /  12.4 °C 30.1in /  1020.2hPa SSO 4.5mph /  7.2km/h 7.4mph /  11.9km/h 87% 0in /  0.0mm
04:54 58.3 °F /  14.6 °C 54.3 °F /  12.4 °C 30.1in /  1020.2hPa SSO 5.2mph /  8.4km/h 8.1mph /  13km/h 87% 0in /  0.0mm
04:59 58.3 °F /  14.6 °C 54.3 °F /  12.4 °C 30.1in /  1020.1hPa SSO 5.3mph /  8.5km/h 8.1mph /  13km/h 87% 0in /  0.0mm
05:04 58.1 °F /  14.5 °C 54.1 °F /  12.3 °C 30.1in /  1020.1hPa SSO 5.4mph /  8.7km/h 7.4mph /  11.9km/h 87% 0in /  0.0mm
05:09 58.1 °F /  14.5 °C 54.1 °F /  12.3 °C 30.1in /  1020.1hPa SSO 5.3mph /  8.6km/h 8.1mph /  13km/h 87% 0in /  0.0mm
05:14 58.1 °F /  14.5 °C 54.1 °F /  12.3 °C 30.1in /  1020.1hPa SO 5.2mph /  8.4km/h 6.2mph /  10km/h 87% 0in /  0.0mm
05:19 58.1 °F /  14.5 °C 54.1 °F /  12.3 °C 30.1in /  1020.1hPa SO 4.7mph /  7.6km/h 5.9mph /  9.5km/h 87% 0in /  0.0mm
05:24 58.1 °F /  14.5 °C 54.1 °F /  12.3 °C 30.1in /  1020.1hPa SO 4mph /  6.4km/h 6.9mph /  11.1km/h 86.6% 0in /  0.0mm
05:29 58.1 °F /  14.5 °C 54 °F /  12.2 °C 30.1in /  1020.1hPa SO 4mph /  6.4km/h 6.9mph /  11.1km/h 86% 0in /  0.0mm
05:34 58.3 °F /  14.6 °C 54 °F /  12.2 °C 30.1in /  1020.1hPa SO 4mph /  6.4km/h 6.2mph /  10km/h 86% 0in /  0.0mm
05:39 58.3 °F /  14.6 °C 54.1 °F /  12.3 °C 30.1in /  1020.1hPa SO 4mph /  6.4km/h 6.9mph /  11.1km/h 86% 0in /  0.0mm
05:44 58.3 °F /  14.6 °C 54.1 °F /  12.3 °C 30.1in /  1019.9hPa SO 4mph /  6.4km/h 7.4mph /  11.9km/h 86% 0in /  0.0mm
05:49 58.3 °F /  14.6 °C 54.1 °F /  12.3 °C 30.1in /  1019.9hPa SSO 3.9mph /  6.2km/h 5.4mph /  8.7km/h 86% 0in /  0.0mm
05:54 58.3 °F /  14.6 °C 54 °F /  12.2 °C 30.1in /  1020.0hPa SSO 3.6mph /  5.8km/h 5.8mph /  9.3km/h 86% 0in /  0.0mm
05:59 58.3 °F /  14.6 °C 54.1 °F /  12.3 °C 30.1in /  1020.0hPa Sur 3.6mph /  5.8km/h 5.9mph /  9.5km/h 86% 0in /  0.0mm
06:04 58.3 °F /  14.6 °C 54.1 °F /  12.3 °C 30.1in /  1020.0hPa Sur 3.6mph /  5.8km/h 6.2mph /  10km/h 86% 0in /  0.0mm
06:09 58.1 °F /  14.5 °C 54 °F /  12.2 °C 30.1in /  1020.0hPa SSO 3.6mph /  5.8km/h 4.7mph /  7.6km/h 86% 0in /  0.0mm
06:14 58.1 °F /  14.5 °C 54 °F /  12.2 °C 30.1in /  1019.8hPa SSO 3.6mph /  5.8km/h 4.6mph /  7.4km/h 86% 0in /  0.0mm
06:19 58.1 °F /  14.5 °C 54 °F /  12.2 °C 30.1in /  1019.8hPa SSO 3.4mph /  5.4km/h 5.4mph /  8.7km/h 86% 0in /  0.0mm
06:24 58.1 °F /  14.5 °C 54 °F /  12.2 °C 30.1in /  1019.8hPa SSO 2.9mph /  4.7km/h 5.8mph /  9.3km/h 86% 0in /  0.0mm
06:29 58.3 °F /  14.6 °C 54.1 °F /  12.3 °C 30.1in /  1019.8hPa SO 3.2mph /  5.1km/h 5.9mph /  9.5km/h 86% 0in /  0.0mm
06:34 58.3 °F /  14.6 °C 54.1 °F /  12.3 °C 30.1in /  1019.8hPa SO 3.6mph /  5.8km/h 7.4mph /  11.9km/h 86% 0in /  0.0mm
06:39 58.3 °F /  14.6 °C 54 °F /  12.2 °C 30.1in /  1019.8hPa SO 3.9mph /  6.2km/h 8.1mph /  13km/h 85.6% 0in /  0.0mm
06:44 58.5 °F /  14.7 °C 54 °F /  12.2 °C 30.1in /  1019.8hPa SO 4.3mph /  6.9km/h 6.2mph /  10km/h 85% 0in /  0.0mm
06:49 58.5 °F /  14.7 °C 54 °F /  12.2 °C 30.1in /  1019.8hPa SO 4.3mph /  6.9km/h 6.2mph /  10km/h 85% 0in /  0.0mm
06:54 58.5 °F /  14.7 °C 54 °F /  12.2 °C 30.1in /  1019.8hPa SO 4.3mph /  6.9km/h 6.2mph /  10km/h 85% 0in /  0.0mm
06:59 58.5 °F /  14.7 °C 53.6 °F /  12 °C 30.1in /  1019.8hPa SO 4.2mph /  6.7km/h 5.8mph /  9.3km/h 84% 0in /  0.0mm
07:04 58.5 °F /  14.7 °C 53.6 °F /  12 °C 30.1in /  1019.8hPa SSO 4mph /  6.4km/h 5.8mph /  9.3km/h 84% 0in /  0.0mm
07:09 58.5 °F /  14.7 °C 53.6 °F /  12 °C 30.1in /  1019.9hPa Sur 3.7mph /  5.9km/h 6.9mph /  11.1km/h 84% 0in /  0.0mm
07:14 58.5 °F /  14.7 °C 53.6 °F /  12 °C 30.1in /  1019.9hPa SSO 3.1mph /  5km/h 5.9mph /  9.5km/h 84% 0in /  0.0mm
07:19 58.5 °F /  14.7 °C 53.6 °F /  12 °C 30.1in /  1019.9hPa Sur 3.4mph /  5.5km/h 5.8mph /  9.3km/h 84% 0in /  0.0mm
07:24 58.5 °F /  14.7 °C 53.6 °F /  12 °C 30.1in /  1020.0hPa SSO 4mph /  6.4km/h 6.2mph /  10km/h 84% 0in /  0.0mm
07:29 58.5 °F /  14.7 °C 53.6 °F /  12 °C 30.1in /  1020.0hPa SSO 4mph /  6.4km/h 6.9mph /  11.1km/h 84% 0in /  0.0mm
07:34 58.5 °F /  14.7 °C 53.6 °F /  12 °C 30.1in /  1020.0hPa SSO 4mph /  6.4km/h 6.9mph /  11.1km/h 84% 0in /  0.0mm
07:39 58.5 °F /  14.7 °C 53.6 °F /  12 °C 30.1in /  1020.0hPa SSO 4.1mph /  6.6km/h 7.6mph /  12.2km/h 84% 0in /  0.0mm
07:44 58.5 °F /  14.7 °C 53.6 °F /  12 °C 30.1in /  1019.9hPa SSO 4.3mph /  6.9km/h 8.1mph /  13km/h 83.8% 0in /  0.0mm
07:49 58.5 °F /  14.7 °C 53.2 °F /  11.8 °C 30.1in /  1019.9hPa SSO 4.3mph /  6.9km/h 7.4mph /  11.9km/h 83.1% 0in /  0.0mm
07:54 58.5 °F /  14.7 °C 53.2 °F /  11.8 °C 30.1in /  1020.0hPa SSO 4.3mph /  6.9km/h 6.2mph /  10km/h 83% 0in /  0.0mm
07:59 58.3 °F /  14.6 °C 53.2 °F /  11.8 °C 30.1in /  1020.0hPa SO 4.2mph /  6.7km/h 6.2mph /  10km/h 83% 0in /  0.0mm
08:04 58.3 °F /  14.6 °C 53.1 °F /  11.7 °C 30.1in /  1020.0hPa SSO 4mph /  6.4km/h 5.9mph /  9.5km/h 83% 0in /  0.0mm
08:09 58.3 °F /  14.6 °C 53.1 °F /  11.7 °C 30.1in /  1020.1hPa SSO 3.9mph /  6.2km/h 7.4mph /  11.9km/h 83% 0in /  0.0mm
08:14 58.1 °F /  14.5 °C 53.1 °F /  11.7 °C 30.1in /  1020.1hPa SSO 3.6mph /  5.8km/h 5.9mph /  9.5km/h 83.4% 0in /  0.0mm
08:19 57.9 °F /  14.4 °C 53.1 °F /  11.7 °C 30.1in /  1020.1hPa SSO 3.7mph /  6km/h 8.1mph /  13km/h 84% 0in /  0.0mm
08:24 57.9 °F /  14.4 °C 53.1 °F /  11.7 °C 30.1in /  1020.3hPa SSO 4mph /  6.4km/h 7.4mph /  11.9km/h 84% 0in /  0.0mm
08:29 57.9 °F /  14.4 °C 53.1 °F /  11.7 °C 30.1in /  1020.3hPa SSO 4.1mph /  6.6km/h 6.2mph /  10km/h 84% 0in /  0.0mm
08:34 57.9 °F /  14.4 °C 53.1 °F /  11.7 °C 30.1in /  1020.3hPa SSO 4.3mph /  6.9km/h 8.1mph /  13km/h 84% 0in /  0.0mm
08:39 57.7 °F /  14.3 °C 53.1 °F /  11.7 °C 30.1in /  1020.6hPa SSO 4.6mph /  7.4km/h 8.5mph /  13.7km/h 84% 0in /  0.0mm
08:44 57.7 °F /  14.3 °C 52.9 °F /  11.6 °C 30.1in /  1020.6hPa SSO 5.2mph /  8.4km/h 9.7mph /  15.6km/h 84% 0in /  0.0mm
08:49 57.9 °F /  14.4 °C 53.1 °F /  11.7 °C 30.1in /  1020.6hPa SSO 5.6mph /  9km/h 10.4mph /  16.7km/h 84% 0in /  0.0mm
08:54 57.9 °F /  14.4 °C 53.1 °F /  11.7 °C 30.1in /  1020.7hPa SSO 6.2mph /  10km/h 8.5mph /  13.7km/h 84% 0in /  0.0mm
08:59 58.3 °F /  14.6 °C 53.4 °F /  11.9 °C 30.1in /  1020.7hPa SSO 6.2mph /  10km/h 11.2mph /  18km/h 84% 0in /  0.0mm
09:04 58.5 °F /  14.7 °C 53.6 °F /  12 °C 30.1in /  1020.7hPa SSO 6.2mph /  10km/h 11.5mph /  18.5km/h 84% 0in /  0.0mm
09:09 58.5 °F /  14.7 °C 53.2 °F /  11.8 °C 30.2in /  1021.1hPa SSO 6.5mph /  10.4km/h 11.5mph /  18.5km/h 83% 0in /  0.0mm
09:14 58.5 °F /  14.7 °C 53.2 °F /  11.8 °C 30.2in /  1021.1hPa SSO 6.9mph /  11.1km/h 11.5mph /  18.5km/h 83% 0in /  0.0mm
09:19 58.5 °F /  14.7 °C 53.2 °F /  11.8 °C 30.2in /  1021.1hPa SSO 7.1mph /  11.5km/h 11.5mph /  18.5km/h 83% 0in /  0.0mm
09:24 58.5 °F /  14.7 °C 53.2 °F /  11.8 °C 30.2in /  1021.5hPa SSO 7.6mph /  12.2km/h 12.3mph /  19.8km/h 83% 0in /  0.0mm
09:29 58.5 °F /  14.7 °C 53.2 °F /  11.8 °C 30.2in /  1021.5hPa SO 7.5mph /  12.1km/h 12.7mph /  20.4km/h 83% 0in /  0.0mm
09:34 58.5 °F /  14.7 °C 53.2 °F /  11.8 °C 30.2in /  1021.5hPa SSO 7.4mph /  11.9km/h 10.7mph /  17.2km/h 83% 0in /  0.0mm
09:39 58.5 °F /  14.7 °C 53.2 °F /  11.8 °C 30.2in /  1021.7hPa SO 6.8mph /  11km/h 10.4mph /  16.7km/h 83% 0in /  0.0mm
09:44 58.6 °F /  14.8 °C 53.4 °F /  11.9 °C 30.2in /  1021.7hPa SSO 5.9mph /  9.5km/h 8.5mph /  13.7km/h 83% 0in /  0.0mm
09:49 58.6 °F /  14.8 °C 53.4 °F /  11.9 °C 30.2in /  1021.7hPa SSO 5.9mph /  9.5km/h 8.1mph /  13km/h 83% 0in /  0.0mm
09:54 58.8 °F /  14.9 °C 53.6 °F /  12 °C 30.2in /  1021.9hPa SSO 5.9mph /  9.5km/h 8.7mph /  14km/h 83% 0in /  0.0mm
09:59 59 °F /  15 °C 53.8 °F /  12.1 °C 30.2in /  1021.9hPa SSO 5.4mph /  8.7km/h 9.2mph /  14.8km/h 83% 0in /  0.0mm
10:04 59.2 °F /  15.1 °C 53.8 °F /  12.1 °C 30.2in /  1021.9hPa SSO 4.7mph /  7.6km/h 8.1mph /  13km/h 82.2% 0in /  0.0mm
10:09 59.4 °F /  15.2 °C 53.8 °F /  12.1 °C 30.2in /  1022.1hPa SSO 4.7mph /  7.6km/h 8.1mph /  13km/h 82% 0in /  0.0mm
10:14 59.5 °F /  15.3 °C 54 °F /  12.2 °C 30.2in /  1022.1hPa SO 4.7mph /  7.6km/h 6.9mph /  11.1km/h 82% 0in /  0.0mm
10:19 59.7 °F /  15.4 °C 54.1 °F /  12.3 °C 30.2in /  1022.1hPa SO 4.7mph /  7.6km/h 8.1mph /  13km/h 82% 0in /  0.0mm
10:24 59.9 °F /  15.5 °C 54.1 °F /  12.3 °C 30.2in /  1022.3hPa OSO 4.7mph /  7.6km/h 6.9mph /  11.1km/h 81.4% 0in /  0.0mm
10:29 60.1 °F /  15.6 °C 54.3 °F /  12.4 °C 30.2in /  1022.3hPa OSO 4.3mph /  6.9km/h 5.9mph /  9.5km/h 81% 0in /  0.0mm
10:34 60.3 °F /  15.7 °C 54.1 °F /  12.3 °C 30.2in /  1022.3hPa SO 3.6mph /  5.8km/h 8.1mph /  13km/h 80.1% 0in /  0.0mm
10:39 60.4 °F /  15.8 °C 54.3 °F /  12.4 °C 30.2in /  1022.3hPa SSO 3.7mph /  6km/h 6.2mph /  10km/h 80% 0in /  0.0mm
10:44 60.6 °F /  15.9 °C 54.5 °F /  12.5 °C 30.2in /  1022.2hPa SSO 4mph /  6.4km/h 6.9mph /  11.1km/h 80% 0in /  0.0mm
10:49 61 °F /  16.1 °C 54.3 °F /  12.4 °C 30.2in /  1022.2hPa SO 4mph /  6.4km/h 6.9mph /  11.1km/h 79.2% 0in /  0.0mm
10:54 61 °F /  16.1 °C 54.3 °F /  12.4 °C 30.2in /  1022.2hPa SSO 4mph /  6.4km/h 6.9mph /  11.1km/h 79% 0in /  0.0mm
10:59 61 °F /  16.1 °C 54.3 °F /  12.4 °C 30.2in /  1022.2hPa SSO 4.1mph /  6.6km/h 7.4mph /  11.9km/h 78.8% 0in /  0.0mm
11:04 61 °F /  16.1 °C 54.1 °F /  12.3 °C 30.2in /  1022.2hPa SSO 4.3mph /  6.9km/h 6.9mph /  11.1km/h 78.2% 0in /  0.0mm
11:09 61 °F /  16.1 °C 54.1 °F /  12.3 °C 30.2in /  1022.3hPa SO 4.2mph /  6.7km/h 8.1mph /  13km/h 78% 0in /  0.0mm
11:14 61.2 °F /  16.2 °C 54.1 °F /  12.3 °C 30.2in /  1022.3hPa SO 4mph /  6.4km/h 6.9mph /  11.1km/h 78% 0in /  0.0mm
11:19 61.2 °F /  16.2 °C 54.1 °F /  12.3 °C 30.2in /  1022.3hPa SSO 4.1mph /  6.6km/h 6.2mph /  10km/h 78% 0in /  0.0mm
11:24 61.3 °F /  16.3 °C 54.3 °F /  12.4 °C 30.2in /  1022.3hPa SO 4.3mph /  6.9km/h 5.8mph /  9.3km/h 78% 0in /  0.0mm
11:29 61.3 °F /  16.3 °C 54.5 °F /  12.5 °C 30.2in /  1022.3hPa SO 4mph /  6.5km/h 6.9mph /  11.1km/h 78% 0in /  0.0mm
11:34 61.5 °F /  16.4 °C 54.5 °F /  12.5 °C 30.2in /  1022.3hPa SO 3.6mph /  5.8km/h 8.1mph /  13km/h 78% 0in /  0.0mm
11:39 61.5 °F /  16.4 °C 54.5 °F /  12.5 °C 30.2in /  1022.3hPa SO 4.2mph /  6.8km/h 9.2mph /  14.8km/h 77.8% 0in /  0.0mm
11:44 61.5 °F /  16.4 °C 54.3 °F /  12.4 °C 30.2in /  1022.2hPa SSO 5.2mph /  8.4km/h 8.5mph /  13.7km/h 77.4% 0in /  0.0mm
11:49 61.7 °F /  16.5 °C 54.3 °F /  12.4 °C 30.2in /  1022.2hPa SSO 5.2mph /  8.4km/h 8.5mph /  13.7km/h 77% 0in /  0.0mm
11:54 61.9 °F /  16.6 °C 54.5 °F /  12.5 °C 30.2in /  1022.3hPa SO 5.2mph /  8.4km/h 9.7mph /  15.6km/h 77% 0in /  0.0mm
11:59 62.1 °F /  16.7 °C 54.7 °F /  12.6 °C 30.2in /  1022.3hPa SSO 5mph /  8km/h 6.9mph /  11.1km/h 76.8% 0in /  0.0mm
12:04 62.1 °F /  16.7 °C 54.5 °F /  12.5 °C 30.2in /  1022.3hPa SSO 4.7mph /  7.6km/h 6.9mph /  11.1km/h 76.1% 0in /  0.0mm
12:09 62.2 °F /  16.8 °C 54.7 °F /  12.6 °C 30.2in /  1022.3hPa SSO 4.5mph /  7.3km/h 8.1mph /  13km/h 76.2% 0in /  0.0mm
12:14 62.4 °F /  16.9 °C 54.9 °F /  12.7 °C 30.2in /  1022.2hPa SSO 4.3mph /  6.9km/h 6.9mph /  11.1km/h 76% 0in /  0.0mm
12:19 62.6 °F /  17 °C 54.9 °F /  12.7 °C 30.2in /  1022.2hPa SSO 4.2mph /  6.7km/h 7.4mph /  11.9km/h 76% 0in /  0.0mm
12:24 62.8 °F /  17.1 °C 54.7 °F /  12.6 °C 30.2in /  1022.2hPa SO 4mph /  6.4km/h 6.9mph /  11.1km/h 75.2% 0in /  0.0mm
12:29 62.8 °F /  17.1 °C 54.7 °F /  12.6 °C 30.2in /  1022.2hPa SSO 4.1mph /  6.6km/h 8.5mph /  13.7km/h 75% 0in /  0.0mm
12:34 63 °F /  17.2 °C 54.9 °F /  12.7 °C 30.2in /  1022.2hPa SO 4.3mph /  6.9km/h 6.9mph /  11.1km/h 75% 0in /  0.0mm
12:39 63.1 °F /  17.3 °C 55 °F /  12.8 °C 30.2in /  1022.2hPa SSO 3.9mph /  6.2km/h 6.9mph /  11.1km/h 75% 0in /  0.0mm
12:44 63.1 °F /  17.3 °C 55.2 °F /  12.9 °C 30.2in /  1022.1hPa SSO 3.1mph /  5km/h 5.2mph /  8.4km/h 75% 0in /  0.0mm
12:49 63.5 °F /  17.5 °C 55.2 °F /  12.9 °C 30.2in /  1022.1hPa SSO 3mph /  4.9km/h 5.2mph /  8.4km/h 74.7% 0in /  0.0mm
12:54 63.7 °F /  17.6 °C 55.2 °F /  12.9 °C 30.2in /  1022.1hPa SSO 2.9mph /  4.7km/h 6.9mph /  11.1km/h 74.2% 0in /  0.0mm
12:59 63.9 °F /  17.7 °C 55.4 °F /  13 °C 30.2in /  1021.8hPa Sur 3.5mph /  5.6km/h 8.5mph /  13.7km/h 74% 0in /  0.0mm
13:04 64 °F /  17.8 °C 55.6 °F /  13.1 °C 30.2in /  1021.8hPa Sur 4.3mph /  6.9km/h 8.5mph /  13.7km/h 73.9% 0in /  0.0mm
13:09 64 °F /  17.8 °C 55.4 °F /  13 °C 30.2in /  1021.8hPa SSE 4.4mph /  7.1km/h 6.9mph /  11.1km/h 73.4% 0in /  0.0mm
13:14 64.2 °F /  17.9 °C 55.4 °F /  13 °C 30.2in /  1021.8hPa Sur 4.7mph /  7.6km/h 7.4mph /  11.9km/h 73% 0in /  0.0mm
13:19 64.2 °F /  17.9 °C 55.4 °F /  13 °C 30.2in /  1021.8hPa SSO 4.7mph /  7.6km/h 7.4mph /  11.9km/h 73% 0in /  0.0mm
13:24 64.4 °F /  18 °C 55.6 °F /  13.1 °C 30.2in /  1021.8hPa SSO 4.7mph /  7.6km/h 5.9mph /  9.5km/h 73% 0in /  0.0mm
13:29 64.6 °F /  18.1 °C 55.6 °F /  13.1 °C 30.2in /  1021.4hPa SO 4.1mph /  6.6km/h 3.6mph /  5.8km/h 72.6% 0in /  0.0mm
13:34 64.8 °F /  18.2 °C 55.6 °F /  13.1 °C 30.2in /  1021.4hPa SSO 3.1mph /  5km/h 4.7mph /  7.6km/h 72% 0in /  0.0mm
13:39 64.9 °F /  18.3 °C 55.6 °F /  13.1 °C 30.2in /  1021.4hPa SSE 2.9mph /  4.6km/h 4.6mph /  7.4km/h 71.8% 0in /  0.0mm
13:44 65.1 °F /  18.4 °C 55.6 °F /  13.1 °C 30.2in /  1021.2hPa SSE 2.4mph /  3.9km/h 6.2mph /  10km/h 71% 0in /  0.0mm
13:49 65.5 °F /  18.6 °C 55.8 °F /  13.2 °C 30.2in /  1021.2hPa SSE 2.9mph /  4.6km/h 5.8mph /  9.3km/h 71% 0in /  0.0mm
13:54 65.7 °F /  18.7 °C 55.8 °F /  13.2 °C 30.2in /  1021.2hPa SE 3.6mph /  5.8km/h 4.6mph /  7.4km/h 70.7% 0in /  0.0mm
13:59 65.7 °F /  18.7 °C 55.6 °F /  13.1 °C 30.2in /  1020.9hPa SSE 3.3mph /  5.3km/h 5.9mph /  9.5km/h 70% 0in /  0.0mm
14:04 65.8 °F /  18.8 °C 55.8 °F /  13.2 °C 30.2in /  1020.9hPa SE 2.9mph /  4.7km/h 8.1mph /  13km/h 70% 0in /  0.0mm
14:09 65.8 °F /  18.8 °C 55.8 °F /  13.2 °C 30.2in /  1020.9hPa SE 3.8mph /  6.1km/h 8.1mph /  13km/h 70% 0in /  0.0mm
14:14 65.8 °F /  18.8 °C 55.8 °F /  13.2 °C 30.2in /  1020.9hPa SE 5.4mph /  8.7km/h 6.9mph /  11.1km/h 70% 0in /  0.0mm
14:19 65.8 °F /  18.8 °C 55.8 °F /  13.2 °C 30.2in /  1020.9hPa SSE 5.2mph /  8.3km/h 7.4mph /  11.9km/h 70% 0in /  0.0mm
14:24 65.8 °F /  18.8 °C 55.8 °F /  13.2 °C 30.2in /  1020.9hPa SE 4.7mph /  7.6km/h 6.9mph /  11.1km/h 70% 0in /  0.0mm
14:29 66 °F /  18.9 °C 55.9 °F /  13.3 °C 30.1in /  1020.8hPa SE 4.7mph /  7.6km/h 6.9mph /  11.1km/h 70% 0in /  0.0mm
14:34 66 °F /  18.9 °C 55.6 °F /  13.1 °C 30.1in /  1020.8hPa SSE 4.7mph /  7.6km/h 6.9mph /  11.1km/h 69.1% 0in /  0.0mm
14:39 66.2 °F /  19 °C 55.8 °F /  13.2 °C 30.1in /  1020.8hPa SSE 4.5mph /  7.3km/h 6.2mph /  10km/h 69% 0in /  0.0mm
14:44 66.6 °F /  19.2 °C 55.9 °F /  13.3 °C 30.1in /  1020.6hPa SE 4.3mph /  6.9km/h 6.4mph /  10.3km/h 69% 0in /  0.0mm
14:49 66.6 °F /  19.2 °C 55.8 °F /  13.2 °C 30.1in /  1020.6hPa SE 4.3mph /  6.9km/h 7.4mph /  11.9km/h 68.1% 0in /  0.0mm
14:54 66.7 °F /  19.3 °C 55.8 °F /  13.2 °C 30.1in /  1020.6hPa SE 4.3mph /  6.9km/h 5.9mph /  9.5km/h 68% 0in /  0.0mm
14:59 66.7 °F /  19.3 °C 55.9 °F /  13.3 °C 30.1in /  1020.5hPa SSE 3.8mph /  6.1km/h 5.4mph /  8.7km/h 68% 0in /  0.0mm
15:04 66.9 °F /  19.4 °C 55.8 °F /  13.2 °C 30.1in /  1020.5hPa SSE 3.1mph /  5km/h 5.8mph /  9.3km/h 67.3% 0in /  0.0mm
15:09 67.1 °F /  19.5 °C 55.8 °F /  13.2 °C 30.1in /  1020.5hPa SSE 3.3mph /  5.3km/h 5.2mph /  8.4km/h 67% 0in /  0.0mm
15:14 67.3 °F /  19.6 °C 55.6 °F /  13.1 °C 30.1in /  1020.3hPa Sur 3.6mph /  5.8km/h 3.5mph /  5.6km/h 66% 0in /  0.0mm
15:19 67.5 °F /  19.7 °C 55.8 °F /  13.2 °C 30.1in /  1020.3hPa Sur 3mph /  4.8km/h 4mph /  6.4km/h 66% 0in /  0.0mm
15:24 67.6 °F /  19.8 °C 55.6 °F /  13.1 °C 30.1in /  1020.3hPa SSE 2mph /  3.2km/h 4.6mph /  7.4km/h 65.1% 0in /  0.0mm
15:29 67.8 °F /  19.9 °C 55.6 °F /  13.1 °C 30.1in /  1020.1hPa SE 2.1mph /  3.4km/h 4.6mph /  7.4km/h 65% 0in /  0.0mm
15:34 68.2 °F /  20.1 °C 55.9 °F /  13.3 °C 30.1in /  1020.1hPa SE 2.4mph /  3.9km/h 3.6mph /  5.8km/h 65% 0in /  0.0mm
15:39 68.2 °F /  20.1 °C 55.9 °F /  13.3 °C 30.1in /  1020.1hPa SE 2.2mph /  3.6km/h 3.6mph /  5.8km/h 65% 0in /  0.0mm
15:44 68.4 °F /  20.2 °C 56.1 °F /  13.4 °C 30.1in /  1020.0hPa Este 2mph /  3.2km/h 3.5mph /  5.6km/h 65% 0in /  0.0mm
15:49 68.5 °F /  20.3 °C 56.1 °F /  13.4 °C 30.1in /  1020.0hPa Este 1.8mph /  2.9km/h 2.4mph /  3.9km/h 64.4% 0in /  0.0mm
15:54 68.7 °F /  20.4 °C 55.9 °F /  13.3 °C 30.1in /  1020.0hPa NE 1.4mph /  2.3km/h 5.8mph /  9.3km/h 64% 0in /  0.0mm
15:59 68.7 °F /  20.4 °C 55.9 °F /  13.3 °C 30.1in /  1019.8hPa North 2.1mph /  3.4km/h 6.9mph /  11.1km/h 64% 0in /  0.0mm
16:04 68.7 °F /  20.4 °C 56.3 °F /  13.5 °C 30.1in /  1019.8hPa NNE 3.1mph /  5km/h 7.4mph /  11.9km/h 64.7% 0in /  0.0mm
16:09 68.7 °F /  20.4 °C 56.5 °F /  13.6 °C 30.1in /  1019.8hPa North 3.5mph /  5.7km/h 6.9mph /  11.1km/h 65% 0in /  0.0mm
16:14 68.7 °F /  20.4 °C 56.7 °F /  13.7 °C 30.1in /  1019.7hPa North 4.3mph /  6.9km/h 6.9mph /  11.1km/h 65.3% 0in /  0.0mm
16:19 68.7 °F /  20.4 °C 56.8 °F /  13.8 °C 30.1in /  1019.7hPa NNE 4mph /  6.5km/h 6.9mph /  11.1km/h 65.9% 0in /  0.0mm
16:24 68.7 °F /  20.4 °C 56.8 °F /  13.8 °C 30.1in /  1019.7hPa NE 3.6mph /  5.8km/h 6.4mph /  10.3km/h 66% 0in /  0.0mm
16:29 68.7 °F /  20.4 °C 57.2 °F /  14 °C 30.1in /  1019.7hPa NE 3.9mph /  6.2km/h 6.9mph /  11.1km/h 66.6% 0in /  0.0mm
16:34 68.7 °F /  20.4 °C 57.4 °F /  14.1 °C 30.1in /  1019.7hPa NNE 4.3mph /  6.9km/h 5.8mph /  9.3km/h 67% 0in /  0.0mm
16:39 68.7 °F /  20.4 °C 57.4 °F /  14.1 °C 30.1in /  1019.8hPa NNE 4.2mph /  6.7km/h 7.4mph /  11.9km/h 67% 0in /  0.0mm
16:44 68.7 °F /  20.4 °C 57.4 °F /  14.1 °C 30.1in /  1019.8hPa NNE 4mph /  6.4km/h 5.9mph /  9.5km/h 67% 0in /  0.0mm
16:49 68.7 °F /  20.4 °C 57.4 °F /  14.1 °C 30.1in /  1019.8hPa NNE 4mph /  6.4km/h 7.4mph /  11.9km/h 67.3% 0in /  0.0mm
16:54 68.7 °F /  20.4 °C 57.7 °F /  14.3 °C 30.1in /  1019.8hPa NNE 4mph /  6.4km/h 6.2mph /  10km/h 68% 0in /  0.0mm
16:59 68.7 °F /  20.4 °C 57.7 °F /  14.3 °C 30.1in /  1019.8hPa NE 4mph /  6.4km/h 5.8mph /  9.3km/h 68% 0in /  0.0mm
17:04 68.9 °F /  20.5 °C 57.9 °F /  14.4 °C 30.1in /  1019.8hPa NE 4mph /  6.4km/h 6.2mph /  10km/h 68% 0in /  0.0mm
17:09 68.9 °F /  20.5 °C 57.9 °F /  14.4 °C 30.1in /  1019.8hPa NE 4mph /  6.4km/h 8.1mph /  13km/h 68% 0in /  0.0mm
17:14 69.1 °F /  20.6 °C 58.1 °F /  14.5 °C 30.1in /  1019.7hPa NE 4mph /  6.4km/h 8.1mph /  13km/h 68% 0in /  0.0mm
17:19 69.1 °F /  20.6 °C 58.1 °F /  14.5 °C 30.1in /  1019.7hPa NE 4.1mph /  6.6km/h 7.4mph /  11.9km/h 68% 0in /  0.0mm
17:24 69.1 °F /  20.6 °C 58.1 °F /  14.5 °C 30.1in /  1019.7hPa NE 4.3mph /  6.9km/h 8.1mph /  13km/h 68% 0in /  0.0mm
17:29 68.9 °F /  20.5 °C 57.7 °F /  14.3 °C 30.1in /  1019.7hPa NE 4.7mph /  7.5km/h 7.6mph /  12.2km/h 67.3% 0in /  0.0mm
17:34 68.9 °F /  20.5 °C 57.9 °F /  14.4 °C 30.1in /  1019.7hPa NE 5.2mph /  8.4km/h 7.4mph /  11.9km/h 68% 0in /  0.0mm
17:39 68.7 °F /  20.4 °C 57.7 °F /  14.3 °C 30.1in /  1019.8hPa NE 5mph /  8.1km/h 8.1mph /  13km/h 68% 0in /  0.0mm
17:44 68.7 °F /  20.4 °C 57.7 °F /  14.3 °C 30.1in /  1019.8hPa NNE 4.7mph /  7.6km/h 8.1mph /  13km/h 68% 0in /  0.0mm
17:49 68.5 °F /  20.3 °C 57.7 °F /  14.3 °C 30.1in /  1019.8hPa NNE 4.7mph /  7.6km/h 7.4mph /  11.9km/h 68.3% 0in /  0.0mm
17:54 68.5 °F /  20.3 °C 57.9 °F /  14.4 °C 30.1in /  1019.9hPa NE 4.7mph /  7.6km/h 8.5mph /  13.7km/h 69% 0in /  0.0mm
17:59 68.4 °F /  20.2 °C 57.9 °F /  14.4 °C 30.1in /  1019.9hPa NNE 4.5mph /  7.3km/h 5.9mph /  9.5km/h 69% 0in /  0.0mm
18:04 68.4 °F /  20.2 °C 57.7 °F /  14.3 °C 30.1in /  1019.9hPa NE 4.3mph /  6.9km/h 7.6mph /  12.2km/h 69% 0in /  0.0mm
18:09 68.4 °F /  20.2 °C 57.7 °F /  14.3 °C 30.1in /  1020.0hPa NE 4.2mph /  6.7km/h 8.1mph /  13km/h 69% 0in /  0.0mm
18:14 68.4 °F /  20.2 °C 57.7 °F /  14.3 °C 30.1in /  1020.0hPa NE 4mph /  6.4km/h 8.1mph /  13km/h 69% 0in /  0.0mm
18:19 68.4 °F /  20.2 °C 57.7 °F /  14.3 °C 30.1in /  1020.0hPa NNE 4.1mph /  6.6km/h 6.2mph /  10km/h 69% 0in /  0.0mm
18:24 68.2 °F /  20.1 °C 57.7 °F /  14.3 °C 30.1in /  1020.0hPa NNE 4.3mph /  6.9km/h 5.8mph /  9.3km/h 69.2% 0in /  0.0mm
18:29 68.2 °F /  20.1 °C 57.9 °F /  14.4 °C 30.1in /  1020.0hPa NNE 4mph /  6.5km/h 5.9mph /  9.5km/h 70% 0in /  0.0mm
18:34 68.2 °F /  20.1 °C 57.9 °F /  14.4 °C 30.1in /  1020.0hPa NE 3.6mph /  5.8km/h 5.8mph /  9.3km/h 70% 0in /  0.0mm
18:39 68 °F /  20 °C 57.7 °F /  14.3 °C 30.1in /  1020.0hPa NE 3.6mph /  5.8km/h 5.9mph /  9.5km/h 70% 0in /  0.0mm
18:44 67.8 °F /  19.9 °C 57.7 °F /  14.3 °C 30.1in /  1020.0hPa NNE 3.6mph /  5.8km/h 5.8mph /  9.3km/h 70% 0in /  0.0mm
18:49 67.8 °F /  19.9 °C 57.9 °F /  14.4 °C 30.1in /  1020.0hPa NNE 3.6mph /  5.8km/h 5.8mph /  9.3km/h 70.5% 0in /  0.0mm
18:54 67.6 °F /  19.8 °C 57.9 °F /  14.4 °C 30.1in /  1020.1hPa NNE 3.6mph /  5.8km/h 5.8mph /  9.3km/h 71% 0in /  0.0mm
18:59 67.6 °F /  19.8 °C 57.9 °F /  14.4 °C 30.1in /  1020.1hPa NNE 3.6mph /  5.8km/h 6.2mph /  10km/h 71% 0in /  0.0mm
19:04 67.5 °F /  19.7 °C 57.9 °F /  14.4 °C 30.1in /  1020.1hPa NNE 3.6mph /  5.8km/h 8.1mph /  13km/h 71.5% 0in /  0.0mm
19:09 67.5 °F /  19.7 °C 58.1 °F /  14.5 °C 30.1in /  1020.1hPa NNE 4.2mph /  6.7km/h 8.1mph /  13km/h 72% 0in /  0.0mm
19:14 67.5 °F /  19.7 °C 58.1 °F /  14.5 °C 30.1in /  1020.1hPa NNE 5.2mph /  8.4km/h 8.5mph /  13.7km/h 72% 0in /  0.0mm
19:19 67.5 °F /  19.7 °C 58.1 °F /  14.5 °C 30.1in /  1020.1hPa NNE 5.3mph /  8.5km/h 8.5mph /  13.7km/h 72% 0in /  0.0mm
19:24 67.3 °F /  19.6 °C 57.9 °F /  14.4 °C 30.1in /  1020.2hPa NNE 5.4mph /  8.7km/h 9.7mph /  15.6km/h 72.1% 0in /  0.0mm
19:29 67.3 °F /  19.6 °C 58.3 °F /  14.6 °C 30.1in /  1020.2hPa NNE 5.3mph /  8.6km/h 8.5mph /  13.7km/h 73% 0in /  0.0mm
19:34 67.3 °F /  19.6 °C 58.3 °F /  14.6 °C 30.1in /  1020.2hPa NNE 5.2mph /  8.4km/h 8.1mph /  13km/h 73% 0in /  0.0mm
19:39 67.1 °F /  19.5 °C 58.5 °F /  14.7 °C 30.1in /  1020.2hPa NNE 5mph /  8.1km/h 6.9mph /  11.1km/h 73.9% 0in /  0.0mm
19:44 66.9 °F /  19.4 °C 58.5 °F /  14.7 °C 30.1in /  1020.2hPa NNE 4.7mph /  7.6km/h 4.7mph /  7.6km/h 74% 0in /  0.0mm
19:49 66.7 °F /  19.3 °C 58.6 °F /  14.8 °C 30.1in /  1020.2hPa North 4.1mph /  6.6km/h 5.2mph /  8.4km/h 74.9% 0in /  0.0mm
19:54 66.7 °F /  19.3 °C 58.6 °F /  14.8 °C 30.1in /  1020.3hPa NNE 3.1mph /  5km/h 5.2mph /  8.4km/h 75% 0in /  0.0mm
19:59 66.7 °F /  19.3 °C 58.8 °F /  14.9 °C 30.1in /  1020.3hPa NE 3mph /  4.9km/h 3.6mph /  5.8km/h 76% 0in /  0.0mm
20:04 66.6 °F /  19.2 °C 58.8 °F /  14.9 °C 30.1in /  1020.3hPa NE 2.9mph /  4.7km/h 3.5mph /  5.6km/h 76% 0in /  0.0mm
20:09 66.6 °F /  19.2 °C 58.8 °F /  14.9 °C 30.1in /  1020.4hPa NE 2.4mph /  3.8km/h 2.4mph /  3.9km/h 76% 0in /  0.0mm
20:14 66.6 °F /  19.2 °C 59 °F /  15 °C 30.1in /  1020.4hPa NE 1.4mph /  2.3km/h 2.9mph /  4.7km/h 76.7% 0in /  0.0mm
20:19 66.6 °F /  19.2 °C 59.2 °F /  15.1 °C 30.1in /  1020.4hPa NE 1.6mph /  2.5km/h 4.7mph /  7.6km/h 77% 0in /  0.0mm
20:24 66.4 °F /  19.1 °C 59.2 °F /  15.1 °C 30.1in /  1020.7hPa NE 1.8mph /  2.9km/h 5.9mph /  9.5km/h 77.5% 0in /  0.0mm
20:27 66.4 °F /  19.1 °C 59.4 °F /  15.2 °C 30.1in /  1020.7hPa NE 1.8mph /  2.9km/h 5.8mph /  9.3km/h 78% 0in /  0.0mm
20:34 66.4 °F /  19.1 °C 59.4 °F /  15.2 °C 30.1in /  1020.7hPa NE 3.6mph /  5.8km/h 5.8mph /  9.3km/h 78% 0in /  0.0mm
20:39 66.4 °F /  19.1 °C 59.5 °F /  15.3 °C 30.1in /  1020.7hPa NNE 3.6mph /  5.8km/h 5.9mph /  9.5km/h 78.9% 0in /  0.0mm
20:44 66.2 °F /  19 °C 59.5 °F /  15.3 °C 30.1in /  1020.7hPa NE 3.6mph /  5.8km/h 5.2mph /  8.4km/h 79% 0in /  0.0mm
20:49 66 °F /  18.9 °C 59.4 °F /  15.2 °C 30.1in /  1020.7hPa NNE 3.4mph /  5.5km/h 5.2mph /  8.4km/h 79% 0in /  0.0mm
20:54 66 °F /  18.9 °C 59.4 °F /  15.2 °C 30.1in /  1020.8hPa NNE 3.1mph /  5km/h 3.6mph /  5.8km/h 79% 0in /  0.0mm
20:59 65.8 °F /  18.8 °C 59.2 °F /  15.1 °C 30.1in /  1020.8hPa NNE 2.8mph /  4.5km/h 3.6mph /  5.8km/h 79.4% 0in /  0.0mm
21:04 65.8 °F /  18.8 °C 59.5 °F /  15.3 °C 30.1in /  1020.8hPa ENE 2.4mph /  3.9km/h 4.6mph /  7.4km/h 80% 0in /  0.0mm
21:09 65.8 °F /  18.8 °C 59.5 °F /  15.3 °C 30.2in /  1020.9hPa NE 2.2mph /  3.5km/h 3.6mph /  5.8km/h 80% 0in /  0.0mm
21:14 65.7 °F /  18.7 °C 59.4 °F /  15.2 °C 30.2in /  1020.9hPa NE 1.8mph /  2.9km/h 3.6mph /  5.8km/h 80% 0in /  0.0mm
21:19 65.7 °F /  18.7 °C 59.4 °F /  15.2 °C 30.2in /  1020.9hPa NE 1.9mph /  3km/h 3.6mph /  5.8km/h 80% 0in /  0.0mm
21:24 65.7 °F /  18.7 °C 59.4 °F /  15.2 °C 30.2in /  1020.9hPa NE 2mph /  3.2km/h 3.5mph /  5.6km/h 80% 0in /  0.0mm
21:29 65.7 °F /  18.7 °C 59.4 °F /  15.2 °C 30.1in /  1020.8hPa NE 1.7mph /  2.8km/h 1.2mph /  1.9km/h 80% 0in /  0.0mm
21:34 65.7 °F /  18.7 °C 59.5 °F /  15.3 °C 30.1in /  1020.8hPa NE 1.4mph /  2.3km/h   80.7% 0in /  0.0mm
21:39 65.7 °F /  18.7 °C 59.7 °F /  15.4 °C 30.1in /  1020.8hPa NE 0.9mph /  1.4km/h   81% 0in /  0.0mm
21:44 65.7 °F /  18.7 °C 59.7 °F /  15.4 °C 30.1in /  1020.8hPa Calm   3.1mph /  5km/h 81% 0in /  0.0mm
21:49 65.7 °F /  18.7 °C 59.7 °F /  15.4 °C 30.1in /  1020.8hPa NE 0.7mph /  1.1km/h 4mph /  6.4km/h 81% 0in /  0.0mm
21:54 65.7 °F /  18.7 °C 59.7 °F /  15.4 °C 30.1in /  1020.8hPa NE 1.8mph /  2.9km/h 4.6mph /  7.4km/h 81% 0in /  0.0mm
21:59 65.7 °F /  18.7 °C 59.7 °F /  15.4 °C 30.1in /  1020.8hPa NE 1.9mph /  3km/h 2.9mph /  4.7km/h 81% 0in /  0.0mm
22:04 65.7 °F /  18.7 °C 59.7 °F /  15.4 °C 30.1in /  1020.8hPa NE 2mph /  3.2km/h 2.4mph /  3.9km/h 81% 0in /  0.0mm
22:09 65.7 °F /  18.7 °C 59.7 °F /  15.4 °C 30.2in /  1021.0hPa NE 1.8mph /  2.9km/h 3.6mph /  5.8km/h 81% 0in /  0.0mm
22:14 65.7 °F /  18.7 °C 59.7 °F /  15.4 °C 30.2in /  1021.0hPa NE 1.4mph /  2.3km/h 8.1mph /  13km/h 81% 0.01in /  0.3mm
22:19 65.7 °F /  18.7 °C 60.1 °F /  15.6 °C 30.2in /  1021.0hPa NNO 2.4mph /  3.8km/h 8.5mph /  13.7km/h 82.2% 0.07in /  1.8mm
22:24 65.3 °F /  18.5 °C 60.1 °F /  15.6 °C 30.2in /  1021.0hPa ONO 4mph /  6.4km/h 6.2mph /  10km/h 83.6% 0.12in /  3.1mm
22:29 64.9 °F /  18.3 °C 60.1 °F /  15.6 °C 30.2in /  1021.0hPa NO 3.7mph /  5.9km/h 5.8mph /  9.3km/h 84.3% 0.12in /  3.1mm
22:34 64.8 °F /  18.2 °C 60.3 °F /  15.7 °C 30.2in /  1021.0hPa NE 3.1mph /  5km/h 7.6mph /  12.2km/h 85.4% 0.12in /  3.1mm
22:39 64.2 °F /  17.9 °C 60.3 °F /  15.7 °C 30.2in /  1021.3hPa NNE 3.5mph /  5.7km/h 8.7mph /  14km/h 86.5% 0.15in /  3.8mm
22:44 64 °F /  17.8 °C 60.4 °F /  15.8 °C 30.2in /  1021.3hPa NO 4.3mph /  6.9km/h 9.2mph /  14.8km/h 87.6% 0.19in /  4.9mm
22:49 63.9 °F /  17.7 °C 60.4 °F /  15.8 °C 30.2in /  1021.3hPa NNO 4.2mph /  6.7km/h 5.8mph /  9.3km/h 88.4% 0.19in /  4.9mm
22:54 63.9 °F /  17.7 °C 60.6 °F /  15.9 °C 30.2in /  1021.6hPa NNE 4mph /  6.4km/h 5.2mph /  8.4km/h 89% 0.2in /  5.1mm
22:59 63.7 °F /  17.6 °C 60.6 °F /  15.9 °C 30.2in /  1021.6hPa ENE 3.5mph /  5.7km/h 4.7mph /  7.6km/h 89.8% 0.2in /  5.1mm
23:04 63.7 °F /  17.6 °C 60.6 °F /  15.9 °C 30.2in /  1021.6hPa ENE 2.9mph /  4.7km/h 5.2mph /  8.4km/h 90% 0.2in /  5.1mm
23:09 63.5 °F /  17.5 °C 60.6 °F /  15.9 °C 30.2in /  1021.7hPa NE 2.7mph /  4.4km/h 4.6mph /  7.4km/h 90.3% 0.2in /  5.1mm
23:14 63.5 °F /  17.5 °C 60.8 °F /  16 °C 30.2in /  1021.7hPa NE 2.4mph /  3.9km/h 2.9mph /  4.7km/h 91% 0.2in /  5.1mm
23:19 63.3 °F /  17.4 °C 60.6 °F /  15.9 °C 30.2in /  1021.7hPa NE 2.1mph /  3.3km/h 2.4mph /  3.9km/h 91% 0.18in /  4.6mm
23:24 63.3 °F /  17.4 °C 60.6 °F /  15.9 °C 30.2in /  1021.8hPa ENE 1.4mph /  2.3km/h 3.6mph /  5.8km/h 91% 0.1in /  2.5mm
23:29 63.3 °F /  17.4 °C 60.6 °F /  15.9 °C 30.2in /  1021.8hPa SE 1.6mph /  2.6km/h 4.7mph /  7.6km/h 91% 0.12in /  3.0mm
23:34 63.1 °F /  17.3 °C 60.6 °F /  15.9 °C 30.2in /  1021.8hPa SSO 2mph /  3.2km/h 4.6mph /  7.4km/h 91.1% 0.12in /  3.0mm
23:39 63.1 °F /  17.3 °C 60.8 °F /  16 °C 30.2in /  1021.8hPa SSO 1.7mph /  2.8km/h 2.4mph /  3.9km/h 92% 0.12in /  3.0mm
23:44 63.1 °F /  17.3 °C 60.8 °F /  16 °C 30.2in /  1021.8hPa SSO 1.4mph /  2.3km/h 3.5mph /  5.6km/h 92% 0.07in /  1.7mm
23:49 63.1 °F /  17.3 °C 60.8 °F /  16 °C 30.2in /  1021.8hPa Sur 1.6mph /  2.6km/h 3.6mph /  5.8km/h 92% 0.05in /  1.2mm
23:54 63.1 °F /  17.3 °C 60.8 °F /  16 °C 30.2in /  1021.8hPa Sur 2mph /  3.2km/h 2.4mph /  3.9km/h 92% 0.05in /  1.3mm
23:59 63.1 °F /  17.3 °C 60.8 °F /  16 °C 30.2in /  1021.8hPa SSE 1.7mph /  2.8km/h 3.1mph /  5km/h 92% 0.05in /  1.3mm
Murcia-Puente Tocinos, Espa?a
Compliments of Weather Underground - 3 mb

La estación de MeteoMurcia.com, publica sus datos en los siguientes proyectos:

Weather Underground PWS IMURCIAP2 Meteoclimatic www.awekas.at

W3Counter
Web Analytics